Time;durP1;ratioP1;P1;durP2;ratioP2;P2;SDS_P1;SDS_P2;PMS_P1;PMS_P2;Temp;Humidity;BMP_temperature;BMP_pressure;BME280_temperature;BME280_humidity;BME280_pressure;Samples;Min_cycle;Max_cycle;Signal;HPM_P1;HPM_P2
2022/07/25 00:01:22;;;;;;;155.05;144.05;;;24.80;71.00;;;;;;5116075;27;20047;-85
2022/07/25 00:03:49;;;;;;;157.00;145.80;;;24.70;71.30;;;;;;5098873;27;20973;-85
2022/07/25 00:06:16;;;;;;;155.13;144.13;;;24.70;71.50;;;;;;5115887;27;20083;-85
2022/07/25 00:08:43;;;;;;;157.80;146.75;;;24.60;71.60;;;;;;5098255;27;20135;-85
2022/07/25 00:11:10;;;;;;;156.05;145.07;;;24.70;71.60;;;;;;5116353;27;20052;-85
2022/07/25 00:13:37;;;;;;;160.18;148.82;;;24.60;71.40;;;;;;5112941;27;20091;-85
2022/07/25 00:16:04;;;;;;;157.13;146.02;;;24.60;71.10;;;;;;5115334;27;20097;-85
2022/07/25 00:18:32;;;;;;;155.93;144.93;;;24.60;71.40;;;;;;5115590;27;20526;-85
2022/07/25 00:20:59;;;;;;;157.65;146.45;;;24.60;71.40;;;;;;5099301;27;20120;-85
2022/07/25 00:23:26;;;;;;;158.02;146.82;;;24.50;71.20;;;;;;5115463;27;20051;-85
2022/07/25 00:25:53;;;;;;;161.75;150.35;;;24.50;71.20;;;;;;5098577;27;20490;-84
2022/07/25 00:28:20;;;;;;;159.35;148.05;;;24.50;71.00;;;;;;5115452;27;20047;-85
2022/07/25 00:30:47;;;;;;;158.77;147.57;;;24.40;71.00;;;;;;5098646;27;20146;-85
2022/07/25 00:33:14;;;;;;;160.38;148.73;;;24.40;71.30;;;;;;5115722;27;20052;-85
2022/07/25 00:35:42;;;;;;;161.55;150.13;;;24.40;71.00;;;;;;5098747;27;20051;-84
2022/07/25 00:38:09;;;;;;;159.98;148.63;;;24.30;71.10;;;;;;5115437;27;20053;-85
2022/07/25 00:40:36;;;;;;;160.98;149.57;;;24.30;71.10;;;;;;5098538;27;20058;-85
2022/07/25 00:43:04;;;;;;;158.80;147.45;;;24.30;71.10;;;;;;5115339;27;20493;-85
2022/07/25 00:45:30;;;;;;;155.80;144.73;;;24.30;71.40;;;;;;5098608;27;20130;-85
2022/07/25 00:47:57;;;;;;;160.88;149.15;;;24.20;71.20;;;;;;5086598;28;20123;-84
2022/07/25 00:50:24;;;;;;;159.75;148.25;;;24.10;71.40;;;;;;5077973;28;20048;-84
2022/07/25 00:52:53;;;;;;;159.85;148.23;;;24.10;71.50;;;;;;5095770;28;20179;-85
2022/07/25 00:55:21;;;;;;;162.48;150.68;;;24.10;71.40;;;;;;5077729;28;20058;-84
2022/07/25 00:57:48;;;;;;;163.25;151.50;;;24.10;71.70;;;;;;5077756;28;20044;-85
2022/07/25 01:00:17;;;;;;;163.18;151.48;;;24.10;72.10;;;;;;5078270;28;20635;-85
2022/07/25 01:02:44;;;;;;;160.43;148.88;;;24.10;71.90;;;;;;5078257;28;20052;-85
2022/07/25 01:05:11;;;;;;;160.52;149.02;;;24.00;71.90;;;;;;5077932;28;20052;-85
2022/07/25 01:07:39;;;;;;;160.00;148.32;;;24.00;71.70;;;;;;5077354;28;20051;-84
2022/07/25 01:10:09;;;;;;;164.00;152.20;;;23.90;71.80;;;;;;5095545;28;20048;-84
2022/07/25 01:12:47;;;;;;;158.75;147.35;;;23.90;71.90;;;;;;5098241;28;20554;-84
2022/07/25 01:15:14;;;;;;;156.05;144.75;;;23.90;72.00;;;;;;5081635;28;20063;-85
2022/07/25 01:17:41;;;;;;;157.70;146.20;;;23.90;72.60;;;;;;5080887;28;20516;-84
2022/07/25 01:20:13;;;;;;;158.77;147.32;;;23.90;72.90;;;;;;5097923;27;20048;-85
2022/07/25 01:22:40;;;;;;;158.07;146.32;;;23.80;72.70;;;;;;5081748;28;20055;-84
2022/07/25 01:25:08;;;;;;;159.70;148.23;;;23.90;72.80;;;;;;5098159;28;20082;-84
2022/07/25 01:27:34;;;;;;;157.88;146.57;;;23.80;72.90;;;;;;5097503;28;20052;-84
2022/07/25 01:30:01;;;;;;;159.07;147.65;;;23.80;72.60;;;;;;5098291;28;20106;-84
2022/07/25 01:32:29;;;;;;;160.00;148.43;;;23.80;72.60;;;;;;5081009;28;20478;-83
2022/07/25 01:34:55;;;;;;;161.90;150.13;;;23.80;72.30;;;;;;5098430;28;20613;-84
2022/07/25 01:37:24;;;;;;;160.48;148.63;;;23.70;72.20;;;;;;5080572;28;20106;-85
2022/07/25 01:39:51;;;;;;;164.38;152.15;;;23.70;72.10;;;;;;5097900;28;20062;-84
2022/07/25 01:42:17;;;;;;;161.48;149.68;;;23.70;72.10;;;;;;5098006;28;20044;-84
2022/07/25 01:44:44;;;;;;;162.55;150.77;;;23.60;72.00;;;;;;5098096;28;20051;-84
2022/07/25 01:47:11;;;;;;;165.32;153.35;;;23.60;71.70;;;;;;5097831;28;20465;-84
2022/07/25 01:49:38;;;;;;;165.40;153.32;;;23.50;71.80;;;;;;5097904;28;20051;-84
2022/07/25 01:52:06;;;;;;;168.65;156.48;;;23.50;71.80;;;;;;5097139;28;20106;-84
2022/07/25 01:54:34;;;;;;;171.52;158.75;;;23.50;72.00;;;;;;5097709;28;20476;-84
2022/07/25 01:57:01;;;;;;;172.20;159.60;;;23.40;72.10;;;;;;5097758;28;20052;-84
2022/07/25 01:59:28;;;;;;;170.02;157.52;;;23.40;72.20;;;;;;5097831;28;20044;-84
2022/07/25 02:01:55;;;;;;;172.57;159.95;;;23.40;72.10;;;;;;5080542;28;20054;-84
2022/07/25 02:04:22;;;;;;;164.88;152.95;;;23.30;72.20;;;;;;5080184;28;20480;-84
2022/07/25 02:06:49;;;;;;;167.18;155.07;;;23.30;72.20;;;;;;5080307;28;20048;-84
2022/07/25 02:09:16;;;;;;;169.68;157.32;;;23.30;72.50;;;;;;5080141;28;20584;-85
2022/07/25 02:11:44;;;;;;;168.48;156.32;;;23.30;72.40;;;;;;5080825;28;20051;-85
2022/07/25 02:14:11;;;;;;;165.57;153.25;;;23.30;72.40;;;;;;5080443;28;20109;-85
2022/07/25 02:16:38;;;;;;;165.18;153.23;;;23.20;72.30;;;;;;5080320;28;20059;-84
2022/07/25 02:19:05;;;;;;;168.98;156.65;;;23.20;72.30;;;;;;5096748;28;20568;-85
2022/07/25 02:21:32;;;;;;;168.60;156.30;;;23.20;72.40;;;;;;5096978;28;20075;-84
2022/07/25 02:23:59;;;;;;;165.65;153.73;;;23.20;72.30;;;;;;5096920;28;20055;-84
2022/07/25 02:26:26;;;;;;;167.65;155.10;;;23.20;72.60;;;;;;5097146;28;20425;-85
2022/07/25 02:28:54;;;;;;;167.98;155.50;;;23.10;72.50;;;;;;5096348;28;20078;-84
2022/07/25 02:31:21;;;;;;;167.63;155.20;;;23.10;72.50;;;;;;5097072;28;20076;-84
2022/07/25 02:33:48;;;;;;;166.93;154.55;;;23.10;72.50;;;;;;5079284;28;20127;-84
2022/07/25 02:36:15;;;;;;;162.40;150.23;;;23.10;72.20;;;;;;5080117;28;20048;-84
2022/07/25 02:38:42;;;;;;;161.38;149.30;;;23.00;72.40;;;;;;5079561;28;20047;-84
2022/07/25 02:41:09;;;;;;;161.02;148.93;;;23.00;72.50;;;;;;5096743;28;20512;-84
2022/07/25 02:43:36;;;;;;;163.88;151.70;;;23.00;72.60;;;;;;5096189;28;20543;-84
2022/07/25 02:46:05;;;;;;;165.95;153.73;;;23.00;72.90;;;;;;5096653;28;20048;-84
2022/07/25 02:48:31;;;;;;;164.57;152.43;;;22.90;73.30;;;;;;5096274;28;20509;-84
2022/07/25 02:50:58;;;;;;;171.50;158.73;;;22.90;73.30;;;;;;5096135;28;20937;-84
2022/07/25 02:53:25;;;;;;;164.00;151.63;;;22.80;73.40;;;;;;5079584;28;20052;-84
2022/07/25 02:55:52;;;;;;;163.57;151.48;;;22.80;73.50;;;;;;5096850;28;20054;-84
2022/07/25 02:58:19;;;;;;;164.18;151.60;;;22.70;73.70;;;;;;5096246;28;20123;-84
2022/07/25 03:00:46;;;;;;;172.65;160.05;;;22.80;73.90;;;;;;5096304;27;20052;-84
2022/07/25 03:03:15;;;;;;;165.18;152.82;;;22.70;73.70;;;;;;5059454;28;20052;-84
2022/07/25 03:05:41;;;;;;;164.93;152.60;;;22.70;73.80;;;;;;5076304;28;20082;-85
2022/07/25 03:08:08;;;;;;;165.30;152.95;;;22.70;74.00;;;;;;5075630;28;20538;-84
2022/07/25 03:10:36;;;;;;;164.30;151.85;;;22.60;74.20;;;;;;5076441;28;20136;-84
2022/07/25 03:13:03;;;;;;;163.75;151.65;;;22.60;74.20;;;;;;5075890;28;20053;-84
2022/07/25 03:15:30;;;;;;;164.98;152.50;;;22.60;74.20;;;;;;5076070;28;20415;-83
2022/07/25 03:17:57;;;;;;;165.30;153.07;;;22.60;74.30;;;;;;5075646;28;20095;-84
2022/07/25 03:20:25;;;;;;;160.82;148.88;;;22.60;74.40;;;;;;5058621;28;20060;-84
2022/07/25 03:22:52;;;;;;;161.70;149.73;;;22.60;74.40;;;;;;5075481;28;20054;-84
2022/07/25 03:25:19;;;;;;;159.68;147.68;;;22.60;74.30;;;;;;5076128;28;20055;-84
2022/07/25 03:27:46;;;;;;;163.35;151.18;;;22.60;74.60;;;;;;5058453;28;20091;-84
2022/07/25 03:30:13;;;;;;;159.43;147.38;;;22.50;74.60;;;;;;5059306;28;20076;-84
2022/07/25 03:32:40;;;;;;;159.50;147.55;;;22.50;74.50;;;;;;5058788;28;20057;-84
2022/07/25 03:35:08;;;;;;;161.93;149.85;;;22.50;74.30;;;;;;5073286;27;20043;-84
2022/07/25 03:37:36;;;;;;;161.90;149.52;;;22.50;74.50;;;;;;5116121;27;20497;-84
2022/07/25 03:40:04;;;;;;;157.63;145.73;;;22.40;74.70;;;;;;5116450;27;20147;-84
2022/07/25 03:42:31;;;;;;;160.75;148.45;;;22.40;75.30;;;;;;5116125;27;20055;-84
2022/07/25 03:44:57;;;;;;;160.93;148.75;;;22.40;75.60;;;;;;5099186;27;20058;-83
2022/07/25 03:47:24;;;;;;;161.38;149.25;;;22.30;76.50;;;;;;5115801;27;20057;-84
2022/07/25 03:49:51;;;;;;;165.63;153.32;;;22.30;76.30;;;;;;5116085;27;20460;-84
2022/07/25 03:52:18;;;;;;;164.70;152.10;;;22.20;76.80;;;;;;5115860;27;20509;-84
2022/07/25 03:54:46;;;;;;;161.77;149.65;;;22.20;77.20;;;;;;5098997;27;20151;-84
2022/07/25 03:57:13;;;;;;;161.85;149.68;;;22.20;78.00;;;;;;5115878;27;20134;-83
2022/07/25 03:59:40;;;;;;;164.07;151.85;;;22.20;78.30;;;;;;5116117;27;20055;-83
2022/07/25 04:02:07;;;;;;;161.02;148.90;;;22.20;78.60;;;;;;5116269;27;20134;-83
2022/07/25 04:04:34;;;;;;;159.82;147.57;;;22.20;79.10;;;;;;5116113;27;20102;-83
2022/07/25 04:07:01;;;;;;;161.98;149.93;;;22.10;79.30;;;;;;5098553;27;20138;-83
2022/07/25 04:09:28;;;;;;;161.30;149.00;;;22.10;79.20;;;;;;5096217;27;20124;-84
2022/07/25 04:11:56;;;;;;;160.13;147.50;;;22.10;79.10;;;;;;5115689;27;20043;-84
2022/07/25 04:14:23;;;;;;;161.32;149.02;;;22.10;79.30;;;;;;5116062;27;20549;-84
2022/07/25 04:16:50;;;;;;;161.32;149.10;;;22.10;79.10;;;;;;5098923;27;20070;-83
2022/07/25 04:19:17;;;;;;;162.77;150.38;;;22.20;79.30;;;;;;5098794;27;20503;-83
2022/07/25 04:21:44;;;;;;;160.27;148.25;;;22.10;79.10;;;;;;5115930;27;20050;-84
2022/07/25 04:24:11;;;;;;;160.10;147.63;;;22.10;79.10;;;;;;5115467;27;20131;-83
2022/07/25 04:26:38;;;;;;;157.35;145.35;;;22.10;79.60;;;;;;5115766;27;20108;-84
2022/07/25 04:29:06;;;;;;;157.15;145.35;;;22.20;80.00;;;;;;5098086;27;20058;-83
2022/07/25 04:31:33;;;;;;;156.95;144.93;;;22.10;80.40;;;;;;5115724;27;20548;-83
2022/07/25 04:34:00;;;;;;;157.40;145.48;;;22.10;80.90;;;;;;5115617;27;20571;-83
2022/07/25 04:36:27;;;;;;;161.45;149.25;;;22.10;81.40;;;;;;5098721;27;20082;-84
2022/07/25 04:38:54;;;;;;;157.65;145.80;;;22.10;81.70;;;;;;5098277;27;20126;-84
2022/07/25 04:41:21;;;;;;;157.90;145.52;;;22.10;81.20;;;;;;5112194;27;20089;-84
2022/07/25 04:43:48;;;;;;;158.27;145.77;;;22.10;81.50;;;;;;5095136;28;20532;-84
2022/07/25 04:46:19;;;;;;;163.50;150.90;;;22.00;81.90;;;;;;5094944;28;20048;-84
2022/07/25 04:48:46;;;;;;;161.25;148.85;;;22.00;81.50;;;;;;5078386;28;20142;-84
2022/07/25 04:51:13;;;;;;;160.43;148.02;;;21.90;81.70;;;;;;5095355;28;20044;-84
2022/07/25 04:53:40;;;;;;;159.95;147.73;;;21.90;82.10;;;;;;5095034;28;20079;-84
2022/07/25 04:56:08;;;;;;;162.63;150.18;;;21.90;82.30;;;;;;5095246;28;20056;-84
2022/07/25 04:58:35;;;;;;;163.35;150.88;;;21.90;82.80;;;;;;5094649;28;20146;-83
2022/07/25 05:01:02;;;;;;;165.50;152.90;;;21.90;83.10;;;;;;5089900;28;20040;-83
2022/07/25 05:03:30;;;;;;;163.80;151.05;;;21.80;83.30;;;;;;5075150;28;20464;-83
2022/07/25 05:05:57;;;;;;;161.63;149.20;;;21.80;83.50;;;;;;5058649;28;20049;-83
2022/07/25 05:08:24;;;;;;;158.43;146.25;;;21.80;84.30;;;;;;5058358;28;20056;-83
2022/07/25 05:10:51;;;;;;;160.55;147.85;;;21.80;84.10;;;;;;5075154;28;20060;-84
2022/07/25 05:13:18;;;;;;;160.63;147.73;;;21.80;84.50;;;;;;5074517;28;20063;-81
2022/07/25 05:15:44;;;;;;;158.35;145.43;;;21.80;84.80;;;;;;5094851;27;20051;-77
2022/07/25 05:18:11;;;;;;;161.55;148.85;;;21.90;85.40;;;;;;5131699;27;20056;-78
2022/07/25 05:20:40;;;;;;;159.00;145.85;;;21.90;85.60;;;;;;5113360;28;20127;-78
2022/07/25 05:23:07;;;;;;;157.73;145.20;;;21.90;85.90;;;;;;5078269;28;20055;-78
2022/07/25 05:25:34;;;;;;;158.88;146.13;;;21.90;86.20;;;;;;5095831;28;20100;-78
2022/07/25 05:28:01;;;;;;;157.40;144.63;;;21.90;86.90;;;;;;5095466;28;20051;-78
2022/07/25 05:30:29;;;;;;;162.82;149.73;;;21.90;86.70;;;;;;5095147;28;20052;-77
2022/07/25 05:32:55;;;;;;;160.07;147.15;;;21.90;86.90;;;;;;5095360;28;22165;-77
2022/07/25 05:35:22;;;;;;;156.45;144.13;;;21.90;87.00;;;;;;5094985;28;20193;-77
2022/07/25 05:37:51;;;;;;;155.93;143.23;;;22.00;87.10;;;;;;5112642;28;20087;-77
2022/07/25 05:40:18;;;;;;;158.07;145.57;;;22.00;87.20;;;;;;5094583;28;20055;-78
2022/07/25 05:42:45;;;;;;;156.75;144.48;;;22.00;87.20;;;;;;5074175;28;20043;-77
2022/07/25 05:45:12;;;;;;;159.13;146.82;;;22.10;87.40;;;;;;5083195;28;20044;-79
2022/07/25 05:47:39;;;;;;;157.30;144.48;;;22.10;87.60;;;;;;5084890;28;20056;-79
2022/07/25 05:50:07;;;;;;;154.48;141.65;;;22.10;87.70;;;;;;5088839;28;20124;-80
2022/07/25 05:52:34;;;;;;;159.77;146.88;;;22.10;88.10;;;;;;5083084;28;20110;-80
2022/07/25 05:55:02;;;;;;;160.38;147.55;;;22.20;88.20;;;;;;5099976;28;20122;-80
2022/07/25 05:57:29;;;;;;;161.02;148.43;;;22.20;88.20;;;;;;5081410;28;20125;-80
2022/07/25 05:59:56;;;;;;;159.82;147.32;;;22.20;87.90;;;;;;5084565;28;20042;-80
2022/07/25 06:02:23;;;;;;;158.25;145.63;;;22.30;87.70;;;;;;5070832;28;20055;-79
2022/07/25 06:04:50;;;;;;;158.13;145.40;;;22.30;87.40;;;;;;5089698;28;20059;-81
2022/07/25 06:07:17;;;;;;;159.65;146.93;;;22.40;87.40;;;;;;5086607;28;20134;-81
2022/07/25 06:09:44;;;;;;;158.70;145.95;;;22.40;87.40;;;;;;5071147;28;20131;-80
2022/07/25 06:12:12;;;;;;;158.18;145.75;;;22.40;87.20;;;;;;5070424;28;20058;-81
2022/07/25 06:14:39;;;;;;;157.13;144.60;;;22.50;87.20;;;;;;5086916;28;20435;-80
2022/07/25 06:17:06;;;;;;;160.75;148.15;;;22.50;87.20;;;;;;5087996;28;20070;-81
2022/07/25 06:19:33;;;;;;;161.02;148.27;;;22.60;87.30;;;;;;5090514;28;20502;-81
2022/07/25 06:22:00;;;;;;;159.35;146.70;;;22.60;87.80;;;;;;5097605;28;20127;-82
2022/07/25 06:24:27;;;;;;;158.15;145.52;;;22.60;87.40;;;;;;5097512;28;20524;-81
2022/07/25 06:26:54;;;;;;;159.40;146.65;;;22.70;87.30;;;;;;5097348;28;20079;-81
2022/07/25 06:29:22;;;;;;;165.65;152.57;;;22.70;87.40;;;;;;5097601;28;20131;-82
2022/07/25 06:31:49;;;;;;;159.90;147.55;;;22.80;87.50;;;;;;5096536;28;20051;-81
2022/07/25 06:34:16;;;;;;;161.43;149.02;;;22.80;87.60;;;;;;5085966;28;20140;-81
2022/07/25 06:36:43;;;;;;;160.70;148.35;;;22.80;87.70;;;;;;5075999;28;20071;-81
2022/07/25 06:39:10;;;;;;;160.18;147.52;;;22.90;88.40;;;;;;5075925;28;20124;-79
2022/07/25 06:41:37;;;;;;;159.25;146.73;;;23.00;88.10;;;;;;5077323;28;20132;-78
2022/07/25 06:44:04;;;;;;;158.27;145.60;;;23.00;87.90;;;;;;5077140;28;20056;-79
2022/07/25 06:46:32;;;;;;;163.13;150.25;;;23.10;88.10;;;;;;5095599;28;20052;-80
2022/07/25 06:49:00;;;;;;;157.75;145.40;;;23.10;88.00;;;;;;5097006;28;20551;-80
2022/07/25 06:51:27;;;;;;;156.43;144.10;;;23.20;87.90;;;;;;5097453;28;20052;-79
2022/07/25 06:53:53;;;;;;;163.65;151.25;;;23.20;87.80;;;;;;5097137;28;20055;-79
2022/07/25 06:56:21;;;;;;;160.77;148.43;;;23.30;87.30;;;;;;5080173;28;20060;-78
2022/07/25 06:58:48;;;;;;;157.40;145.30;;;23.40;87.60;;;;;;5105897;27;20042;-79
2022/07/25 07:01:15;;;;;;;171.82;158.95;;;23.40;87.10;;;;;;5113889;27;20056;-79
2022/07/25 07:03:43;;;;;;;160.10;147.75;;;23.50;86.40;;;;;;5096868;28;20044;-79
2022/07/25 07:06:10;;;;;;;159.77;147.70;;;23.60;86.60;;;;;;5096704;28;20058;-79
2022/07/25 07:08:37;;;;;;;159.63;147.48;;;23.60;86.30;;;;;;5095767;28;20135;-78
2022/07/25 07:11:05;;;;;;;155.50;143.40;;;23.70;86.60;;;;;;5096396;28;20723;-79
2022/07/25 07:13:32;;;;;;;159.55;147.10;;;23.80;86.70;;;;;;5085203;28;20051;-81
2022/07/25 07:15:59;;;;;;;159.70;147.18;;;23.80;86.00;;;;;;5082264;28;20052;-82
2022/07/25 07:18:26;;;;;;;163.20;150.52;;;23.90;86.00;;;;;;5076096;28;20056;-83
2022/07/25 07:20:54;;;;;;;161.13;148.80;;;23.90;84.90;;;;;;5068963;28;20513;-86
2022/07/25 07:23:21;;;;;;;160.77;148.27;;;23.90;84.70;;;;;;5080092;28;20058;-84
2022/07/25 07:25:48;;;;;;;159.55;147.15;;;23.90;84.10;;;;;;5079805;28;20055;-84
2022/07/25 07:28:16;;;;;;;157.23;144.93;;;23.90;84.30;;;;;;5074101;28;20044;-84
2022/07/25 07:30:43;;;;;;;161.77;149.07;;;23.90;85.00;;;;;;5087849;28;20152;-85
2022/07/25 07:33:10;;;;;;;157.63;145.05;;;23.90;85.20;;;;;;5103176;28;20106;-79
2022/07/25 07:35:37;;;;;;;160.63;147.38;;;23.90;84.80;;;;;;5091274;28;20124;-78
2022/07/25 07:38:05;;;;;;;160.93;148.20;;;23.90;84.80;;;;;;5113811;28;20060;-79
2022/07/25 07:40:32;;;;;;;158.65;146.25;;;23.90;85.10;;;;;;5096568;28;20059;-84
2022/07/25 07:43:01;;;;;;;161.52;148.93;;;23.90;85.10;;;;;;5071385;28;20143;-84
2022/07/25 07:45:28;;;;;;;162.13;149.73;;;23.90;85.10;;;;;;5059441;28;20048;-83
2022/07/25 07:47:56;;;;;;;159.60;147.18;;;23.90;85.70;;;;;;5066905;28;20501;-82
2022/07/25 07:50:25;;;;;;;164.95;152.30;;;23.90;86.20;;;;;;5096597;28;20498;-75
2022/07/25 07:52:54;;;;;;;168.40;155.55;;;23.90;87.30;;;;;;5096378;28;20143;-82
2022/07/25 07:58:08;;;;;;;165.30;152.73;;;23.90;88.00;;;;;;5086644;28;21104;-82
2022/07/25 08:00:38;;;;;;;171.50;158.55;;;23.90;87.30;;;;;;5076412;28;20129;-82
2022/07/25 08:03:07;;;;;;;163.35;150.82;;;23.90;87.70;;;;;;5076103;28;20064;-81
2022/07/25 08:05:36;;;;;;;163.68;151.52;;;23.90;87.70;;;;;;5076184;28;20135;-81
2022/07/25 08:08:04;;;;;;;165.27;153.05;;;23.90;86.70;;;;;;5094021;28;20477;-80
2022/07/25 08:10:35;;;;;;;162.50;150.02;;;23.90;86.30;;;;;;5095020;28;20079;-83
2022/07/25 08:13:03;;;;;;;160.85;148.50;;;23.90;86.10;;;;;;5096004;28;20063;-82
2022/07/25 08:15:30;;;;;;;163.85;151.70;;;23.90;86.10;;;;;;5094925;28;20060;-82
2022/07/25 08:17:59;;;;;;;162.00;149.70;;;23.90;86.80;;;;;;5077105;28;20514;-84
2022/07/25 08:20:26;;;;;;;161.88;149.23;;;23.90;85.10;;;;;;5093329;28;20056;-82
2022/07/25 08:22:53;;;;;;;166.73;154.30;;;23.80;85.80;;;;;;5094209;28;20497;-81
2022/07/25 08:25:21;;;;;;;165.27;152.88;;;23.80;87.30;;;;;;5094063;28;20051;-84
2022/07/25 08:27:49;;;;;;;161.98;149.77;;;23.80;88.50;;;;;;5071635;28;20052;-84
2022/07/25 08:30:17;;;;;;;160.20;148.00;;;23.90;87.80;;;;;;5077978;28;20048;-81
2022/07/25 08:32:49;;;;;;;156.52;144.75;;;23.90;87.00;;;;;;5075328;28;20113;-79
2022/07/25 08:35:17;;;;;;;158.00;146.15;;;24.00;86.40;;;;;;5094154;28;21070;-79
2022/07/25 08:37:44;;;;;;;156.02;144.00;;;23.90;87.00;;;;;;5075111;28;20474;-79
2022/07/25 08:40:14;;;;;;;153.93;142.32;;;24.00;85.80;;;;;;5085109;28;20117;-79
2022/07/25 08:42:42;;;;;;;155.27;143.32;;;24.10;85.40;;;;;;5095051;28;20051;-83
2022/07/25 08:45:13;;;;;;;154.32;142.63;;;24.10;86.20;;;;;;5101506;27;20142;-80
2022/07/25 08:47:40;;;;;;;153.35;141.98;;;24.10;85.10;;;;;;5116017;27;20058;-80
2022/07/25 08:50:09;;;;;;;154.80;143.30;;;24.10;84.70;;;;;;5134240;27;20164;-80
2022/07/25 08:52:37;;;;;;;152.70;141.20;;;24.10;85.40;;;;;;5115138;27;20047;-79
2022/07/25 08:55:07;;;;;;;153.55;141.75;;;24.00;84.90;;;;;;5115733;27;20483;-79
2022/07/25 08:57:34;;;;;;;153.50;141.98;;;24.00;85.10;;;;;;5115703;27;20134;-83
2022/07/25 09:00:01;;;;;;;154.52;143.07;;;24.10;85.40;;;;;;5099054;28;20135;-84
2022/07/25 09:02:30;;;;;;;153.82;142.23;;;24.10;85.70;;;;;;5078539;28;20565;-84
2022/07/25 09:04:58;;;;;;;152.95;141.38;;;24.00;85.60;;;;;;5095654;28;20178;-86
2022/07/25 09:07:33;;;;;;;155.07;143.35;;;24.00;85.90;;;;;;5094774;28;20536;-82
2022/07/25 09:13:38;;;;;;;150.68;138.98;;;24.00;87.60;;;;;;5005433;28;20580;-79
2022/07/25 09:16:05;;;;;;;152.23;140.32;;;24.00;87.40;;;;;;4987190;28;20505;-80
2022/07/25 09:18:35;;;;;;;157.75;145.60;;;24.00;87.40;;;;;;4982651;28;20086;-80
2022/07/25 09:21:02;;;;;;;154.98;143.18;;;24.00;88.40;;;;;;4993140;28;20534;-80
2022/07/25 09:23:31;;;;;;;156.85;143.98;;;24.10;88.80;;;;;;4971054;28;20051;-79
2022/07/25 09:26:03;;;;;;;159.93;148.23;;;24.10;88.90;;;;;;4972701;28;20051;-79
2022/07/25 09:28:30;;;;;;;152.65;140.55;;;24.10;85.30;;;;;;4970668;28;20453;-84
2022/07/25 09:30:58;;;;;;;154.13;142.43;;;24.10;82.10;;;;;;4971426;28;20126;-80
2022/07/25 09:33:28;;;;;;;154.45;142.75;;;24.00;80.20;;;;;;4974447;28;20134;-81
2022/07/25 09:35:56;;;;;;;158.55;146.52;;;24.00;79.80;;;;;;4974562;28;20066;-83
2022/07/25 09:38:24;;;;;;;153.52;141.93;;;23.90;80.40;;;;;;4974498;28;20052;-80
2022/07/25 09:40:57;;;;;;;154.68;143.07;;;23.90;81.30;;;;;;4973968;28;20055;-80
2022/07/25 09:43:34;;;;;;;163.00;151.10;;;23.90;82.40;;;;;;4974387;28;20585;-80
2022/07/25 09:46:01;;;;;;;162.65;150.45;;;23.90;81.10;;;;;;4987551;28;20573;-80
2022/07/25 09:48:28;;;;;;;156.98;144.88;;;24.00;79.90;;;;;;4975729;28;20504;-82
2022/07/25 09:50:57;;;;;;;154.05;142.27;;;24.00;79.40;;;;;;4974106;28;20134;-83
2022/07/25 09:53:24;;;;;;;148.50;137.23;;;24.10;78.20;;;;;;5004597;28;20513;-80
2022/07/25 09:55:53;;;;;;;151.65;140.27;;;24.10;78.40;;;;;;4977118;28;20146;-82
2022/07/25 09:58:20;;;;;;;149.82;138.40;;;24.10;78.20;;;;;;5005893;28;20063;-82
2022/07/25 10:00:48;;;;;;;147.85;136.68;;;24.10;78.40;;;;;;4972435;28;20573;-81
2022/07/25 10:03:18;;;;;;;145.27;134.27;;;24.10;78.60;;;;;;5005734;28;20576;-81
2022/07/25 10:06:07;;;;;;;147.95;136.30;;;24.10;78.80;;;;;;5009495;28;20055;-81
2022/07/25 10:08:36;;;;;;;146.27;135.20;;;24.10;80.10;;;;;;5006787;28;20073;-80
2022/07/25 10:11:05;;;;;;;148.95;137.75;;;24.00;80.20;;;;;;4973718;28;20593;-80
2022/07/25 10:13:34;;;;;;;150.10;138.93;;;24.10;80.50;;;;;;5006823;28;20083;-80
2022/07/25 10:16:01;;;;;;;149.52;138.23;;;24.10;81.50;;;;;;4973478;28;20058;-84
2022/07/25 10:18:30;;;;;;;153.23;142.23;;;24.10;82.30;;;;;;4972875;28;20134;-82
2022/07/25 10:21:10;;;;;;;153.35;142.10;;;24.10;83.50;;;;;;5006221;28;20552;-82
2022/07/25 10:23:37;;;;;;;151.00;139.73;;;24.20;83.10;;;;;;4990194;28;20047;-82
2022/07/25 10:26:09;;;;;;;149.60;138.60;;;24.20;82.60;;;;;;4982730;28;20058;-82
2022/07/25 10:28:43;;;;;;;150.20;139.00;;;24.20;82.50;;;;;;4983237;28;20043;-82
2022/07/25 10:31:26;;;;;;;149.52;138.65;;;24.20;83.80;;;;;;5003012;28;20137;-83
2022/07/25 10:33:59;;;;;;;148.70;137.63;;;24.30;85.70;;;;;;4985083;28;20532;-84
2022/07/25 10:36:41;;;;;;;149.13;138.32;;;24.30;85.60;;;;;;4988897;28;20569;-83
2022/07/25 10:39:09;;;;;;;147.02;135.95;;;24.30;84.30;;;;;;5007242;28;20086;-82
2022/07/25 10:41:39;;;;;;;147.18;135.73;;;24.40;84.00;;;;;;4981410;28;20134;-86
2022/07/25 10:44:12;;;;;;;145.32;134.43;;;24.40;84.00;;;;;;4972496;28;20510;-83
2022/07/25 10:46:42;;;;;;;146.93;136.02;;;24.40;85.50;;;;;;4973523;28;20090;-83
2022/07/25 10:49:17;;;;;;;150.18;138.98;;;24.50;84.80;;;;;;4972812;28;20052;-80
2022/07/25 10:51:56;;;;;;;150.20;138.70;;;24.40;84.40;;;;;;4971914;28;20578;-80
2022/07/25 10:54:23;;;;;;;146.93;135.93;;;24.40;85.30;;;;;;4982491;28;20055;-81
2022/07/25 10:56:56;;;;;;;148.20;136.98;;;24.30;85.30;;;;;;4974673;28;20142;-82
2022/07/25 10:59:32;;;;;;;148.65;137.60;;;24.30;85.90;;;;;;4957684;28;20510;-81
2022/07/25 11:01:59;;;;;;;148.05;137.05;;;24.20;86.10;;;;;;5002642;28;20059;-81
2022/07/25 11:04:26;;;;;;;148.52;137.30;;;24.20;87.20;;;;;;4995054;28;20048;-81
2022/07/25 11:06:55;;;;;;;149.07;137.88;;;24.10;88.00;;;;;;4987933;28;20055;-85
2022/07/25 11:09:23;;;;;;;146.70;135.35;;;24.00;88.80;;;;;;4972092;28;20146;-84
2022/07/25 11:11:52;;;;;;;148.18;137.00;;;24.00;89.70;;;;;;4955440;28;20055;-80
2022/07/25 11:14:21;;;;;;;148.50;137.48;;;23.90;90.10;;;;;;4972722;28;20421;-82
2022/07/25 11:16:51;;;;;;;151.27;139.68;;;23.90;90.10;;;;;;4989181;28;20118;-81
2022/07/25 11:19:20;;;;;;;148.32;136.95;;;23.90;90.50;;;;;;4977933;28;20113;-89
2022/07/25 11:21:48;;;;;;;148.07;136.48;;;23.80;91.00;;;;;;4987512;28;20053;-84
2022/07/25 11:24:17;;;;;;;147.55;136.05;;;23.80;90.80;;;;;;4992983;28;20051;-84
2022/07/25 11:26:49;;;;;;;146.98;135.38;;;23.80;90.50;;;;;;4975327;28;20548;-86
2022/07/25 11:29:22;;;;;;;150.00;138.57;;;23.70;90.00;;;;;;4972153;28;20106;-88
2022/07/25 11:31:56;;;;;;;149.77;138.48;;;23.70;89.90;;;;;;5003946;28;20539;-87
2022/07/25 11:34:26;;;;;;;150.13;138.63;;;23.70;89.90;;;;;;5005112;28;20142;-87
2022/07/25 11:36:56;;;;;;;153.18;141.75;;;23.60;90.40;;;;;;4988519;28;20119;-85
2022/07/25 11:39:26;;;;;;;149.77;138.32;;;23.60;90.40;;;;;;4992404;28;20058;-86
2022/07/25 11:42:05;;;;;;;152.60;140.88;;;23.60;90.60;;;;;;4972261;28;20540;-83
2022/07/25 11:44:36;;;;;;;148.18;136.50;;;23.70;90.70;;;;;;4931795;28;20121;-82
2022/07/25 11:47:04;;;;;;;149.57;137.88;;;23.60;90.60;;;;;;4988999;28;20066;-79
2022/07/25 11:49:32;;;;;;;149.77;138.25;;;23.60;90.50;;;;;;4971368;28;20553;-80
2022/07/25 11:51:59;;;;;;;148.60;136.65;;;23.70;90.60;;;;;;4987177;28;20099;-80
2022/07/25 11:54:27;;;;;;;149.40;137.55;;;23.70;90.40;;;;;;4969394;28;20591;-80
2022/07/25 11:56:54;;;;;;;144.77;133.35;;;23.60;90.30;;;;;;4970657;28;20078;-80
2022/07/25 11:59:21;;;;;;;150.40;138.68;;;23.60;90.40;;;;;;4970073;28;20122;-82
2022/07/25 12:01:48;;;;;;;147.75;136.30;;;23.60;90.10;;;;;;5000618;28;20063;-79
2022/07/25 12:04:17;;;;;;;147.30;135.40;;;23.60;90.10;;;;;;4972149;28;20106;-79
2022/07/25 12:06:45;;;;;;;155.13;142.43;;;23.60;90.10;;;;;;4987881;28;20520;-79
2022/07/25 12:09:15;;;;;;;154.77;142.50;;;23.60;90.10;;;;;;4988124;28;20055;-80
2022/07/25 12:11:43;;;;;;;158.35;145.88;;;23.50;90.40;;;;;;4987578;28;20079;-79
2022/07/25 12:14:11;;;;;;;161.68;148.77;;;23.50;90.80;;;;;;4971805;28;20535;-79
2022/07/25 12:16:39;;;;;;;150.68;138.88;;;23.50;90.90;;;;;;4973007;28;20559;-79
2022/07/25 12:19:17;;;;;;;148.18;137.00;;;23.50;90.80;;;;;;4970276;28;20351;-80